sensor_id;sensor_type;location;lat;lon;timestamp;pressure;altitude;pressure_sealevel;temperature;humidity
64388;BME280;50709;52.648;4.764;2024-02-21T00:01:41;102091.34;;;13.88;69.73
64388;BME280;50709;52.648;4.764;2024-02-21T00:04:07;102093.22;;;14.09;68.72
64388;BME280;50709;52.648;4.764;2024-02-21T00:06:32;102082.94;;;14.40;69.49
64388;BME280;50709;52.648;4.764;2024-02-21T00:08:58;102092.56;;;14.39;69.11
64388;BME280;50709;52.648;4.764;2024-02-21T00:11:23;102086.41;;;14.33;68.49
64388;BME280;50709;52.648;4.764;2024-02-21T00:13:49;102076.75;;;14.30;70.02
64388;BME280;50709;52.648;4.764;2024-02-21T00:16:15;102082.00;;;14.28;69.91
64388;BME280;50709;52.648;4.764;2024-02-21T00:18:41;102068.72;;;14.05;69.03
64388;BME280;50709;52.648;4.764;2024-02-21T00:21:07;102074.88;;;14.13;69.50
64388;BME280;50709;52.648;4.764;2024-02-21T00:23:32;102073.19;;;14.20;69.97
64388;BME280;50709;52.648;4.764;2024-02-21T00:25:57;102089.16;;;14.53;68.70
64388;BME280;50709;52.648;4.764;2024-02-21T00:28:23;102059.22;;;14.29;69.11
64388;BME280;50709;52.648;4.764;2024-02-21T00:30:48;102067.91;;;14.19;69.99
64388;BME280;50709;52.648;4.764;2024-02-21T00:33:16;102063.59;;;14.32;69.53
64388;BME280;50709;52.648;4.764;2024-02-21T00:35:41;102053.72;;;13.92;69.73
64388;BME280;50709;52.648;4.764;2024-02-21T00:38:07;102051.13;;;13.98;69.46
64388;BME280;50709;52.648;4.764;2024-02-21T00:40:32;102053.56;;;13.76;69.54
64388;BME280;50709;52.648;4.764;2024-02-21T00:42:57;102051.03;;;13.84;69.45
64388;BME280;50709;52.648;4.764;2024-02-21T00:45:23;102051.94;;;13.86;69.03
64388;BME280;50709;52.648;4.764;2024-02-21T00:47:48;102051.00;;;13.79;69.85
64388;BME280;50709;52.648;4.764;2024-02-21T00:50:13;102052.09;;;14.08;70.11
64388;BME280;50709;52.648;4.764;2024-02-21T00:52:39;102043.31;;;14.09;69.00
64388;BME280;50709;52.648;4.764;2024-02-21T00:55:05;102049.16;;;13.72;69.54
64388;BME280;50709;52.648;4.764;2024-02-21T00:57:30;102048.56;;;14.07;70.09
64388;BME280;50709;52.648;4.764;2024-02-21T00:59:57;102042.44;;;14.05;69.91
64388;BME280;50709;52.648;4.764;2024-02-21T01:02:22;102051.00;;;13.81;69.88
64388;BME280;50709;52.648;4.764;2024-02-21T01:04:48;102039.81;;;14.04;69.69
64388;BME280;50709;52.648;4.764;2024-02-21T01:07:13;102030.03;;;13.86;70.02
64388;BME280;50709;52.648;4.764;2024-02-21T01:09:38;102041.66;;;14.17;69.17
64388;BME280;50709;52.648;4.764;2024-02-21T01:12:04;102046.91;;;14.20;69.78
64388;BME280;50709;52.648;4.764;2024-02-21T01:14:29;102043.28;;;14.03;69.41
64388;BME280;50709;52.648;4.764;2024-02-21T01:16:55;102037.97;;;13.96;70.02
64388;BME280;50709;52.648;4.764;2024-02-21T01:19:20;102034.50;;;13.96;69.88
64388;BME280;50709;52.648;4.764;2024-02-21T01:21:45;102035.50;;;14.18;69.98
64388;BME280;50709;52.648;4.764;2024-02-21T01:24:11;102024.06;;;14.08;69.50
64388;BME280;50709;52.648;4.764;2024-02-21T01:26:36;102032.97;;;14.32;69.79
64388;BME280;50709;52.648;4.764;2024-02-21T01:29:01;102014.53;;;14.24;69.68
64388;BME280;50709;52.648;4.764;2024-02-21T01:31:27;102021.59;;;14.38;69.50
64388;BME280;50709;52.648;4.764;2024-02-21T01:33:52;102017.88;;;13.95;69.40
64388;BME280;50709;52.648;4.764;2024-02-21T01:36:18;102014.59;;;14.35;68.83
64388;BME280;50709;52.648;4.764;2024-02-21T01:38:43;101999.72;;;14.39;68.15
64388;BME280;50709;52.648;4.764;2024-02-21T01:41:08;102002.31;;;14.33;68.86
64388;BME280;50709;52.648;4.764;2024-02-21T01:43:34;101997.06;;;14.37;69.07
64388;BME280;50709;52.648;4.764;2024-02-21T01:46:00;102002.31;;;14.33;69.00
64388;BME280;50709;52.648;4.764;2024-02-21T01:48:26;102000.28;;;13.87;69.15
64388;BME280;50709;52.648;4.764;2024-02-21T01:50:52;102013.53;;;14.07;70.71
64388;BME280;50709;52.648;4.764;2024-02-21T01:53:21;102001.34;;;14.15;69.76
64388;BME280;50709;52.648;4.764;2024-02-21T01:55:47;101997.81;;;14.11;68.92
64388;BME280;50709;52.648;4.764;2024-02-21T01:58:13;101997.03;;;14.29;69.07
64388;BME280;50709;52.648;4.764;2024-02-21T02:00:42;101961.81;;;13.92;69.73
64388;BME280;50709;52.648;4.764;2024-02-21T02:03:09;101996.59;;;13.61;69.34
64388;BME280;50709;52.648;4.764;2024-02-21T02:05:35;101986.22;;;13.82;70.44
64388;BME280;50709;52.648;4.764;2024-02-21T02:08:01;101994.38;;;14.23;69.88
64388;BME280;50709;52.648;4.764;2024-02-21T02:10:26;101995.38;;;14.45;68.80
64388;BME280;50709;52.648;4.764;2024-02-21T02:12:52;101981.22;;;14.22;69.37
64388;BME280;50709;52.648;4.764;2024-02-21T02:15:18;101985.72;;;14.44;69.45
64388;BME280;50709;52.648;4.764;2024-02-21T02:17:43;101992.78;;;14.62;68.73
64388;BME280;50709;52.648;4.764;2024-02-21T02:20:09;101977.63;;;14.04;69.58
64388;BME280;50709;52.648;4.764;2024-02-21T02:22:35;101975.16;;;14.32;70.30
64388;BME280;50709;52.648;4.764;2024-02-21T02:25:03;101974.16;;;14.08;69.80
64388;BME280;50709;52.648;4.764;2024-02-21T02:27:28;101953.19;;;14.21;69.90
64388;BME280;50709;52.648;4.764;2024-02-21T02:29:54;101957.63;;;14.37;69.74
64388;BME280;50709;52.648;4.764;2024-02-21T02:32:19;101962.03;;;14.38;69.39
64388;BME280;50709;52.648;4.764;2024-02-21T02:34:45;101950.66;;;14.44;68.92
64388;BME280;50709;52.648;4.764;2024-02-21T02:37:10;101945.53;;;14.73;68.20
64388;BME280;50709;52.648;4.764;2024-02-21T02:39:35;101942.81;;;14.53;68.83
64388;BME280;50709;52.648;4.764;2024-02-21T02:42:02;101894.19;;;13.58;69.81
64388;BME280;50709;52.648;4.764;2024-02-21T02:44:27;101937.41;;;14.15;70.04
64388;BME280;50709;52.648;4.764;2024-02-21T02:46:52;101932.00;;;13.90;71.29
64388;BME280;50709;52.648;4.764;2024-02-21T02:49:18;101938.22;;;14.00;69.43
64388;BME280;50709;52.648;4.764;2024-02-21T02:51:43;101931.09;;;13.83;69.71
64388;BME280;50709;52.648;4.764;2024-02-21T02:54:09;101930.41;;;14.15;69.75
64388;BME280;50709;52.648;4.764;2024-02-21T02:56:35;101912.91;;;14.22;69.91
64388;BME280;50709;52.648;4.764;2024-02-21T02:59:00;101938.31;;;14.21;69.67
64388;BME280;50709;52.648;4.764;2024-02-21T03:01:26;101924.13;;;13.90;69.63
64388;BME280;50709;52.648;4.764;2024-02-21T03:03:51;101918.94;;;13.99;69.68
64388;BME280;50709;52.648;4.764;2024-02-21T03:06:16;101905.75;;;13.91;70.48
64388;BME280;50709;52.648;4.764;2024-02-21T03:08:42;101901.53;;;14.29;70.42
64388;BME280;50709;52.648;4.764;2024-02-21T03:11:08;101900.50;;;13.90;70.31
64388;BME280;50709;52.648;4.764;2024-02-21T03:13:33;101884.56;;;13.57;71.11
64388;BME280;50709;52.648;4.764;2024-02-21T03:15:59;101900.50;;;13.88;71.39
64388;BME280;50709;52.648;4.764;2024-02-21T03:18:24;101879.44;;;13.77;70.71
64388;BME280;50709;52.648;4.764;2024-02-21T03:20:50;101874.34;;;14.13;70.44
64388;BME280;50709;52.648;4.764;2024-02-21T03:23:15;101865.50;;;13.88;70.25
64388;BME280;50709;52.648;4.764;2024-02-21T03:25:40;101875.09;;;13.78;70.25
64388;BME280;50709;52.648;4.764;2024-02-21T03:28:06;101873.41;;;13.97;70.57
64388;BME280;50709;52.648;4.764;2024-02-21T03:30:31;101879.50;;;13.87;69.92
64388;BME280;50709;52.648;4.764;2024-02-21T03:32:58;101860.28;;;14.00;70.38
64388;BME280;50709;52.648;4.764;2024-02-21T03:35:24;101854.94;;;13.82;69.96
64388;BME280;50709;52.648;4.764;2024-02-21T03:37:52;101875.19;;;14.01;71.01
64388;BME280;50709;52.648;4.764;2024-02-21T03:40:17;101861.97;;;13.81;70.78
64388;BME280;50709;52.648;4.764;2024-02-21T03:42:42;101856.81;;;14.01;71.29
64388;BME280;50709;52.648;4.764;2024-02-21T03:45:08;101855.00;;;13.86;70.54
64388;BME280;50709;52.648;4.764;2024-02-21T03:47:34;101869.09;;;14.11;70.59
64388;BME280;50709;52.648;4.764;2024-02-21T03:49:59;101854.13;;;13.90;70.78
64388;BME280;50709;52.648;4.764;2024-02-21T03:52:25;101855.63;;;13.45;71.30
64388;BME280;50709;52.648;4.764;2024-02-21T03:54:50;101845.31;;;13.77;71.47
64388;BME280;50709;52.648;4.764;2024-02-21T03:57:16;101855.75;;;13.70;71.29
64388;BME280;50709;52.648;4.764;2024-02-21T03:59:42;101859.28;;;13.75;72.14
64388;BME280;50709;52.648;4.764;2024-02-21T04:02:08;101860.25;;;13.86;71.65
64388;BME280;50709;52.648;4.764;2024-02-21T04:04:34;101840.91;;;13.76;70.60
64388;BME280;50709;52.648;4.764;2024-02-21T04:07:02;101862.88;;;13.86;71.93
64388;BME280;50709;52.648;4.764;2024-02-21T04:09:31;101859.34;;;13.83;71.81
64388;BME280;50709;52.648;4.764;2024-02-21T04:11:57;101857.47;;;13.58;72.10
64388;BME280;50709;52.648;4.764;2024-02-21T04:14:22;101850.59;;;13.84;71.01
64388;BME280;50709;52.648;4.764;2024-02-21T04:16:47;101848.88;;;13.92;71.08
64388;BME280;50709;52.648;4.764;2024-02-21T04:19:13;101868.06;;;13.78;71.30
64388;BME280;50709;52.648;4.764;2024-02-21T04:21:38;101847.97;;;13.82;71.20
64388;BME280;50709;52.648;4.764;2024-02-21T04:24:04;101853.09;;;13.60;71.60
64388;BME280;50709;52.648;4.764;2024-02-21T04:26:30;101847.56;;;13.22;71.77
64388;BME280;50709;52.648;4.764;2024-02-21T04:28:56;101846.09;;;13.66;72.76
64388;BME280;50709;52.648;4.764;2024-02-21T04:31:21;101846.09;;;13.62;72.75
64388;BME280;50709;52.648;4.764;2024-02-21T04:33:46;101834.63;;;13.39;73.37
64388;BME280;50709;52.648;4.764;2024-02-21T04:36:12;101831.13;;;13.44;72.71
64388;BME280;50709;52.648;4.764;2024-02-21T04:38:37;101813.53;;;13.29;72.28
64388;BME280;50709;52.648;4.764;2024-02-21T04:41:04;101819.78;;;13.49;73.46
64388;BME280;50709;52.648;4.764;2024-02-21T04:43:29;101822.44;;;13.55;72.08
64388;BME280;50709;52.648;4.764;2024-02-21T04:45:55;101821.56;;;13.59;72.98
64388;BME280;50709;52.648;4.764;2024-02-21T04:48:20;101813.75;;;13.62;72.20
64388;BME280;50709;52.648;4.764;2024-02-21T04:50:46;101823.28;;;13.46;73.07
64388;BME280;50709;52.648;4.764;2024-02-21T04:53:11;101808.44;;;13.53;72.26
64388;BME280;50709;52.648;4.764;2024-02-21T04:55:37;101806.72;;;13.59;73.54
64388;BME280;50709;52.648;4.764;2024-02-21T04:58:02;101803.19;;;13.53;72.22
64388;BME280;50709;52.648;4.764;2024-02-21T05:00:28;101799.50;;;13.23;72.95
64388;BME280;50709;52.648;4.764;2024-02-21T05:02:53;101797.13;;;13.65;72.67
64388;BME280;50709;52.648;4.764;2024-02-21T05:05:19;101800.66;;;13.77;73.08
64388;BME280;50709;52.648;4.764;2024-02-21T05:07:44;101783.09;;;13.62;72.13
64388;BME280;50709;52.648;4.764;2024-02-21T05:10:10;101762.88;;;13.38;72.14
64388;BME280;50709;52.648;4.764;2024-02-21T05:12:35;101777.84;;;13.62;72.16
64388;BME280;50709;52.648;4.764;2024-02-21T05:15:01;101779.63;;;13.70;72.13
64388;BME280;50709;52.648;4.764;2024-02-21T05:17:28;101776.03;;;13.46;72.00
64388;BME280;50709;52.648;4.764;2024-02-21T05:19:53;101772.63;;;13.64;72.33
64388;BME280;50709;52.648;4.764;2024-02-21T05:22:18;101753.31;;;13.50;72.91
64388;BME280;50709;52.648;4.764;2024-02-21T05:24:44;101767.09;;;13.21;73.36
64388;BME280;50709;52.648;4.764;2024-02-21T05:27:09;101745.41;;;13.39;73.03
64388;BME280;50709;52.648;4.764;2024-02-21T05:29:34;101739.22;;;13.32;73.42
64388;BME280;50709;52.648;4.764;2024-02-21T05:32:00;101743.72;;;13.61;72.83
64388;BME280;50709;52.648;4.764;2024-02-21T05:34:25;101732.38;;;13.67;73.20
64388;BME280;50709;52.648;4.764;2024-02-21T05:36:51;101724.41;;;13.40;72.39
64388;BME280;50709;52.648;4.764;2024-02-21T05:39:17;101725.19;;;13.30;73.13
64388;BME280;50709;52.648;4.764;2024-02-21T05:41:43;101717.41;;;13.41;73.56
64388;BME280;50709;52.648;4.764;2024-02-21T05:44:09;101720.97;;;13.54;73.15
64388;BME280;50709;52.648;4.764;2024-02-21T05:46:34;101712.19;;;13.52;72.53
64388;BME280;50709;52.648;4.764;2024-02-21T05:49:00;101712.16;;;13.39;73.30
64388;BME280;50709;52.648;4.764;2024-02-21T05:51:26;101705.22;;;13.54;72.77
64388;BME280;50709;52.648;4.764;2024-02-21T05:53:51;101705.06;;;13.23;73.10
64388;BME280;50709;52.648;4.764;2024-02-21T05:56:18;101714.69;;;13.27;72.88
64388;BME280;50709;52.648;4.764;2024-02-21T05:58:44;101710.31;;;13.23;74.26
64388;BME280;50709;52.648;4.764;2024-02-21T06:01:11;101713.13;;;13.69;73.18
64388;BME280;50709;52.648;4.764;2024-02-21T06:03:37;101716.66;;;13.80;72.59
64388;BME280;50709;52.648;4.764;2024-02-21T06:06:03;101713.03;;;13.41;73.38
64388;BME280;50709;52.648;4.764;2024-02-21T06:08:30;101722.84;;;13.92;72.09
64388;BME280;50709;52.648;4.764;2024-02-21T06:10:55;101712.31;;;13.89;71.40
64388;BME280;50709;52.648;4.764;2024-02-21T06:13:25;101714.91;;;13.75;72.47
64388;BME280;50709;52.648;4.764;2024-02-21T06:15:50;101705.16;;;13.37;72.44
64388;BME280;50709;52.648;4.764;2024-02-21T06:18:20;101713.19;;;13.91;71.27
64388;BME280;50709;52.648;4.764;2024-02-21T06:20:46;101706.22;;;14.05;71.11
64388;BME280;50709;52.648;4.764;2024-02-21T06:23:12;101715.75;;;13.71;71.66
64388;BME280;50709;52.648;4.764;2024-02-21T06:25:38;101704.44;;;13.95;70.57
64388;BME280;50709;52.648;4.764;2024-02-21T06:28:04;101723.66;;;13.75;70.41
64388;BME280;50709;52.648;4.764;2024-02-21T06:30:30;101703.56;;;13.99;72.65
64388;BME280;50709;52.648;4.764;2024-02-21T06:32:55;101718.50;;;14.53;71.09
64388;BME280;50709;52.648;4.764;2024-02-21T06:35:21;101699.25;;;14.74;69.80
64388;BME280;50709;52.648;4.764;2024-02-21T06:37:46;101701.78;;;15.11;68.87
64388;BME280;50709;52.648;4.764;2024-02-21T06:40:16;101704.47;;;14.83;69.69
64388;BME280;50709;52.648;4.764;2024-02-21T06:42:41;101705.38;;;14.40;68.10
64388;BME280;50709;52.648;4.764;2024-02-21T06:45:07;101689.56;;;14.93;68.57
64388;BME280;50709;52.648;4.764;2024-02-21T06:47:32;101693.97;;;14.57;68.05
64388;BME280;50709;52.648;4.764;2024-02-21T06:49:58;101695.72;;;14.76;67.40
64388;BME280;50709;52.648;4.764;2024-02-21T06:52:23;101700.72;;;15.57;66.70
64388;BME280;50709;52.648;4.764;2024-02-21T06:54:50;101683.31;;;15.28;68.46
64388;BME280;50709;52.648;4.764;2024-02-21T06:57:15;101656.19;;;15.10;67.68
64388;BME280;50709;52.648;4.764;2024-02-21T06:59:41;101684.31;;;14.90;67.53
64388;BME280;50709;52.648;4.764;2024-02-21T07:02:07;101656.19;;;15.12;66.60
64388;BME280;50709;52.648;4.764;2024-02-21T07:04:33;101681.50;;;15.45;66.86
64388;BME280;50709;52.648;4.764;2024-02-21T07:06:58;101670.81;;;15.70;65.68
64388;BME280;50709;52.648;4.764;2024-02-21T07:09:23;101669.13;;;15.63;66.89
64388;BME280;50709;52.648;4.764;2024-02-21T07:11:49;101662.34;;;15.02;65.33
64388;BME280;50709;52.648;4.764;2024-02-21T07:14:15;101650.81;;;15.38;65.15
64388;BME280;50709;52.648;4.764;2024-02-21T07:16:40;101653.34;;;15.55;65.85
64388;BME280;50709;52.648;4.764;2024-02-21T07:19:06;101645.78;;;14.73;65.33
64388;BME280;50709;52.648;4.764;2024-02-21T07:21:31;101646.16;;;15.91;65.33
64388;BME280;50709;52.648;4.764;2024-02-21T07:23:57;101640.91;;;15.85;65.00
64388;BME280;50709;52.648;4.764;2024-02-21T07:26:22;101635.28;;;16.28;63.39
64388;BME280;50709;52.648;4.764;2024-02-21T07:28:48;101628.06;;;15.22;66.81
64388;BME280;50709;52.648;4.764;2024-02-21T07:31:14;101619.41;;;15.00;65.81
64388;BME280;50709;52.648;4.764;2024-02-21T07:33:39;101610.66;;;15.02;64.50
64388;BME280;50709;52.648;4.764;2024-02-21T07:36:09;101606.94;;;15.36;65.22
64388;BME280;50709;52.648;4.764;2024-02-21T07:38:35;101605.38;;;15.02;65.61
64388;BME280;50709;52.648;4.764;2024-02-21T07:41:00;101596.59;;;15.08;66.08
64388;BME280;50709;52.648;4.764;2024-02-21T07:43:26;101592.22;;;15.02;66.31
64388;BME280;50709;52.648;4.764;2024-02-21T07:45:52;101606.25;;;14.96;68.20
64388;BME280;50709;52.648;4.764;2024-02-21T07:48:18;101588.78;;;14.83;68.88
64388;BME280;50709;52.648;4.764;2024-02-21T07:50:44;101601.13;;;14.38;69.88
64388;BME280;50709;52.648;4.764;2024-02-21T07:53:10;101599.28;;;14.86;68.28
64388;BME280;50709;52.648;4.764;2024-02-21T07:55:35;101594.03;;;14.88;67.32
64388;BME280;50709;52.648;4.764;2024-02-21T07:58:00;101604.56;;;14.85;67.50
64388;BME280;50709;52.648;4.764;2024-02-21T08:00:26;101591.38;;;14.91;66.64
64388;BME280;50709;52.648;4.764;2024-02-21T08:02:51;101593.22;;;14.70;67.42
64388;BME280;50709;52.648;4.764;2024-02-21T08:05:18;101582.75;;;14.27;68.33
64388;BME280;50709;52.648;4.764;2024-02-21T08:07:43;101584.34;;;15.02;66.48
64388;BME280;50709;52.648;4.764;2024-02-21T08:10:09;101583.56;;;14.77;66.91
64388;BME280;50709;52.648;4.764;2024-02-21T08:12:34;101585.31;;;14.66;69.02
64388;BME280;50709;52.648;4.764;2024-02-21T08:15:01;101553.75;;;14.79;67.47
64388;BME280;50709;52.648;4.764;2024-02-21T08:17:26;101578.13;;;15.19;68.10
64388;BME280;50709;52.648;4.764;2024-02-21T08:19:51;101568.50;;;15.08;67.54
64388;BME280;50709;52.648;4.764;2024-02-21T08:22:17;101557.84;;;15.36;67.53
64388;BME280;50709;52.648;4.764;2024-02-21T08:24:43;101560.78;;;14.67;67.66
64388;BME280;50709;52.648;4.764;2024-02-21T08:27:08;101549.88;;;15.47;66.90
64388;BME280;50709;52.648;4.764;2024-02-21T08:29:34;101544.75;;;15.24;68.14
64388;BME280;50709;52.648;4.764;2024-02-21T08:31:59;101551.16;;;14.67;66.93
64388;BME280;50709;52.648;4.764;2024-02-21T08:34:24;101551.09;;;14.83;67.41
64388;BME280;50709;52.648;4.764;2024-02-21T08:36:50;101540.66;;;14.58;68.88
64388;BME280;50709;52.648;4.764;2024-02-21T08:39:15;101551.16;;;14.52;69.28
64388;BME280;50709;52.648;4.764;2024-02-21T08:41:43;101543.13;;;14.98;69.32
64388;BME280;50709;52.648;4.764;2024-02-21T08:44:09;101539.66;;;14.91;67.84
64388;BME280;50709;52.648;4.764;2024-02-21T08:46:34;101534.53;;;14.46;67.48
64388;BME280;50709;52.648;4.764;2024-02-21T08:48:59;101530.13;;;14.53;68.72
64388;BME280;50709;52.648;4.764;2024-02-21T08:51:25;101538.88;;;14.57;69.01
64388;BME280;50709;52.648;4.764;2024-02-21T08:53:51;101539.78;;;14.46;68.42
64388;BME280;50709;52.648;4.764;2024-02-21T08:56:19;101530.97;;;14.77;69.38
64388;BME280;50709;52.648;4.764;2024-02-21T08:58:44;101520.41;;;14.80;69.89
64388;BME280;50709;52.648;4.764;2024-02-21T09:01:10;101526.34;;;15.24;68.45
64388;BME280;50709;52.648;4.764;2024-02-21T09:03:38;101521.19;;;15.05;66.51
64388;BME280;50709;52.648;4.764;2024-02-21T09:06:05;101526.53;;;14.87;68.33
64388;BME280;50709;52.648;4.764;2024-02-21T09:08:31;101508.00;;;15.08;68.15
64388;BME280;50709;52.648;4.764;2024-02-21T09:10:57;101503.84;;;14.56;66.82
64388;BME280;50709;52.648;4.764;2024-02-21T09:13:22;101502.94;;;14.62;68.12
64388;BME280;50709;52.648;4.764;2024-02-21T09:15:48;101489.75;;;14.76;67.28
64388;BME280;50709;52.648;4.764;2024-02-21T09:18:15;101486.28;;;14.75;65.87
64388;BME280;50709;52.648;4.764;2024-02-21T09:20:40;101475.94;;;14.17;67.82
64388;BME280;50709;52.648;4.764;2024-02-21T09:23:06;101476.69;;;14.56;68.21
64388;BME280;50709;52.648;4.764;2024-02-21T09:25:31;101482.81;;;14.56;68.20
64388;BME280;50709;52.648;4.764;2024-02-21T09:27:57;101460.25;;;13.84;68.04
64388;BME280;50709;52.648;4.764;2024-02-21T09:30:24;101465.34;;;14.44;69.24
64388;BME280;50709;52.648;4.764;2024-02-21T09:32:49;101453.94;;;14.47;68.78
64388;BME280;50709;52.648;4.764;2024-02-21T09:35:15;101456.50;;;14.61;68.83
64388;BME280;50709;52.648;4.764;2024-02-21T09:37:40;101432.91;;;14.50;68.69
64388;BME280;50709;52.648;4.764;2024-02-21T09:40:06;101412.03;;;14.13;69.86
64388;BME280;50709;52.648;4.764;2024-02-21T09:42:39;101427.78;;;14.10;70.01
64388;BME280;50709;52.648;4.764;2024-02-21T09:45:11;101414.66;;;14.18;70.02
64388;BME280;50709;52.648;4.764;2024-02-21T09:50:56;101412.81;;;14.35;68.66
64388;BME280;50709;52.648;4.764;2024-02-21T09:53:24;101412.16;;;13.67;69.44
64388;BME280;50709;52.648;4.764;2024-02-21T09:55:50;101385.81;;;14.04;71.02
64388;BME280;50709;52.648;4.764;2024-02-21T09:58:16;101398.13;;;13.88;71.23
64388;BME280;50709;52.648;4.764;2024-02-21T10:00:41;101392.81;;;13.99;70.18
64388;BME280;50709;52.648;4.764;2024-02-21T10:03:07;101395.53;;;13.57;70.18
64388;BME280;50709;52.648;4.764;2024-02-21T10:05:35;101391.13;;;13.68;69.77
64388;BME280;50709;52.648;4.764;2024-02-21T10:08:02;101377.03;;;14.03;70.17
64388;BME280;50709;52.648;4.764;2024-02-21T10:10:27;101376.22;;;13.84;70.93
64388;BME280;50709;52.648;4.764;2024-02-21T10:12:55;101345.56;;;13.92;70.22
64388;BME280;50709;52.648;4.764;2024-02-21T10:15:21;101349.97;;;13.84;71.01
64388;BME280;50709;52.648;4.764;2024-02-21T10:17:48;101362.13;;;14.11;71.23
64388;BME280;50709;52.648;4.764;2024-02-21T10:20:13;101372.78;;;13.67;71.94
64388;BME280;50709;52.648;4.764;2024-02-21T10:22:40;101356.13;;;13.74;70.49
64388;BME280;50709;52.648;4.764;2024-02-21T10:25:10;101354.34;;;13.85;69.90
64388;BME280;50709;52.648;4.764;2024-02-21T10:27:38;101342.06;;;14.00;70.53
64388;BME280;50709;52.648;4.764;2024-02-21T10:30:06;101335.88;;;14.02;69.52
64388;BME280;50709;52.648;4.764;2024-02-21T10:32:32;101328.16;;;13.65;69.40
64388;BME280;50709;52.648;4.764;2024-02-21T10:35:02;101338.59;;;13.88;70.98
64388;BME280;50709;52.648;4.764;2024-02-21T10:37:30;101335.97;;;13.87;70.86
64388;BME280;50709;52.648;4.764;2024-02-21T10:39:55;101325.44;;;13.96;70.37
64388;BME280;50709;52.648;4.764;2024-02-21T10:42:22;101330.78;;;13.68;70.09
64388;BME280;50709;52.648;4.764;2024-02-21T10:44:51;101324.66;;;13.75;70.37
64388;BME280;50709;52.648;4.764;2024-02-21T10:47:17;101306.34;;;13.48;69.41
64388;BME280;50709;52.648;4.764;2024-02-21T10:49:49;101310.69;;;13.55;70.46
64388;BME280;50709;52.648;4.764;2024-02-21T10:55:20;101295.78;;;13.68;70.77
64388;BME280;50709;52.648;4.764;2024-02-21T10:57:49;101284.47;;;13.52;70.24
64388;BME280;50709;52.648;4.764;2024-02-21T11:00:17;101284.44;;;13.67;69.91
64388;BME280;50709;52.648;4.764;2024-02-21T11:02:44;101285.28;;;13.75;69.23
64388;BME280;50709;52.648;4.764;2024-02-21T11:05:10;101268.44;;;14.09;69.91
64388;BME280;50709;52.648;4.764;2024-02-21T11:07:37;101247.66;;;13.70;69.34
64388;BME280;50709;52.648;4.764;2024-02-21T11:10:03;101269.50;;;13.74;69.10
64388;BME280;50709;52.648;4.764;2024-02-21T11:12:32;101256.28;;;13.99;70.22
64388;BME280;50709;52.648;4.764;2024-02-21T11:15:05;101269.56;;;13.52;69.58
64388;BME280;50709;52.648;4.764;2024-02-21T11:17:31;101265.22;;;13.51;69.46
64388;BME280;50709;52.648;4.764;2024-02-21T11:19:56;101258.19;;;13.56;69.70
64388;BME280;50709;52.648;4.764;2024-02-21T11:22:22;101250.44;;;13.16;69.63
64388;BME280;50709;52.648;4.764;2024-02-21T11:24:49;101248.66;;;13.26;70.55
64388;BME280;50709;52.648;4.764;2024-02-21T11:27:16;101191.78;;;13.43;70.01
64388;BME280;50709;52.648;4.764;2024-02-21T11:29:45;101253.69;;;13.91;69.33
64388;BME280;50709;52.648;4.764;2024-02-21T11:32:11;101246.72;;;13.80;69.47
64388;BME280;50709;52.648;4.764;2024-02-21T11:34:39;101199.66;;;13.34;68.96
64388;BME280;50709;52.648;4.764;2024-02-21T11:37:14;101223.19;;;13.62;69.53
64388;BME280;50709;52.648;4.764;2024-02-21T11:39:42;101202.88;;;13.98;69.53
64388;BME280;50709;52.648;4.764;2024-02-21T11:42:08;101197.63;;;14.00;68.78
64388;BME280;50709;52.648;4.764;2024-02-21T11:44:37;101199.47;;;13.84;70.16
64388;BME280;50709;52.648;4.764;2024-02-21T11:47:07;101191.72;;;13.60;69.76
64388;BME280;50709;52.648;4.764;2024-02-21T11:49:38;101197.69;;;13.90;68.91
64388;BME280;50709;52.648;4.764;2024-02-21T11:52:07;101178.41;;;13.91;69.22
64388;BME280;50709;52.648;4.764;2024-02-21T11:54:33;101171.53;;;13.73;69.78
64388;BME280;50709;52.648;4.764;2024-02-21T11:57:00;101155.84;;;13.61;69.07
64388;BME280;50709;52.648;4.764;2024-02-21T11:59:26;101141.81;;;13.67;69.12
64388;BME280;50709;52.648;4.764;2024-02-21T12:01:52;101126.22;;;13.37;69.42
64388;BME280;50709;52.648;4.764;2024-02-21T12:04:19;101126.03;;;13.68;68.63
64388;BME280;50709;52.648;4.764;2024-02-21T12:06:45;101121.66;;;13.72;69.04
64388;BME280;50709;52.648;4.764;2024-02-21T12:09:17;101122.50;;;13.77;68.74
64388;BME280;50709;52.648;4.764;2024-02-21T12:11:43;101101.69;;;13.48;68.53
64388;BME280;50709;52.648;4.764;2024-02-21T12:14:09;101101.59;;;13.65;69.23
64388;BME280;50709;52.648;4.764;2024-02-21T12:16:35;101090.34;;;13.47;69.42
64388;BME280;50709;52.648;4.764;2024-02-21T12:19:04;101090.09;;;13.83;68.01
64388;BME280;50709;52.648;4.764;2024-02-21T12:21:31;101080.28;;;14.06;69.35
64388;BME280;50709;52.648;4.764;2024-02-21T12:24:10;101079.50;;;13.93;68.34
64388;BME280;50709;52.648;4.764;2024-02-21T12:26:36;101077.56;;;14.17;68.78
64388;BME280;50709;52.648;4.764;2024-02-21T12:29:02;101065.69;;;13.71;67.86
64388;BME280;50709;52.648;4.764;2024-02-21T12:31:27;101059.28;;;14.03;67.72
64388;BME280;50709;52.648;4.764;2024-02-21T12:33:53;101043.84;;;13.63;68.22
64388;BME280;50709;52.648;4.764;2024-02-21T12:36:18;101021.22;;;13.48;68.37
64388;BME280;50709;52.648;4.764;2024-02-21T12:38:44;101013.13;;;13.76;67.94
64388;BME280;50709;52.648;4.764;2024-02-21T12:41:11;101009.84;;;13.49;67.29
64388;BME280;50709;52.648;4.764;2024-02-21T12:43:37;100996.41;;;13.88;67.49
64388;BME280;50709;52.648;4.764;2024-02-21T12:46:03;100994.84;;;13.65;67.41
64388;BME280;50709;52.648;4.764;2024-02-21T12:48:28;100972.94;;;13.69;67.40
64388;BME280;50709;52.648;4.764;2024-02-21T12:50:54;100977.31;;;13.72;68.72